Terminal Aerodrome Forecast
Issued by NWS

Home | Current Version | Previous Version | Text Only | Print | Product List | Glossary Off
Versions: 1 2 3 4 5 6 7 8 9 10 11 12 13 14 15 16 17 18 19 20 21 22 23 24 25 26

000
FTUS43 KPAH 250500
TAFOWB
TAF
KOWB 250521Z 2506/2606 20006KT P6SM BKN200
     FM251600 19009KT 2SM -RA BR OVC008
     FM252000 24007KT 2SM -RA BR OVC008
     FM260200 32014G22KT 3SM -RA OVC009=

USA.gov is the U.S. government's official web portal to all federal, state and local government web resources and services.